sensor_id;sensor_type;location;lat;lon;timestamp;temperature;humidity
26595;DHT22;14238;49.496;8.154;2022-10-22T00:01:48;15.10;99.90
26595;DHT22;14238;49.496;8.154;2022-10-22T00:04:14;15.10;99.90
26595;DHT22;14238;49.496;8.154;2022-10-22T00:06:39;15.20;99.90
26595;DHT22;14238;49.496;8.154;2022-10-22T00:09:07;15.20;99.90
26595;DHT22;14238;49.496;8.154;2022-10-22T00:11:32;15.10;99.90
26595;DHT22;14238;49.496;8.154;2022-10-22T00:13:58;15.10;99.90
26595;DHT22;14238;49.496;8.154;2022-10-22T00:16:24;15.00;99.90
26595;DHT22;14238;49.496;8.154;2022-10-22T00:18:49;15.00;99.90
26595;DHT22;14238;49.496;8.154;2022-10-22T00:21:15;15.10;99.90
26595;DHT22;14238;49.496;8.154;2022-10-22T00:23:42;15.00;99.90
26595;DHT22;14238;49.496;8.154;2022-10-22T00:26:09;15.00;99.90
26595;DHT22;14238;49.496;8.154;2022-10-22T00:28:34;15.00;99.90
26595;DHT22;14238;49.496;8.154;2022-10-22T00:31:00;15.00;99.90
26595;DHT22;14238;49.496;8.154;2022-10-22T00:33:27;15.00;99.90
26595;DHT22;14238;49.496;8.154;2022-10-22T00:35:53;14.90;99.90
26595;DHT22;14238;49.496;8.154;2022-10-22T00:38:18;14.90;99.90
26595;DHT22;14238;49.496;8.154;2022-10-22T00:40:44;14.90;99.90
26595;DHT22;14238;49.496;8.154;2022-10-22T00:43:16;14.90;99.90
26595;DHT22;14238;49.496;8.154;2022-10-22T00:45:43;14.90;99.90
26595;DHT22;14238;49.496;8.154;2022-10-22T00:48:22;14.80;99.90
26595;DHT22;14238;49.496;8.154;2022-10-22T00:53:42;14.90;99.90
26595;DHT22;14238;49.496;8.154;2022-10-22T00:56:10;14.90;99.90
26595;DHT22;14238;49.496;8.154;2022-10-22T00:58:39;15.10;99.90
26595;DHT22;14238;49.496;8.154;2022-10-22T01:01:08;15.10;99.90
26595;DHT22;14238;49.496;8.154;2022-10-22T01:03:36;15.00;99.90
26595;DHT22;14238;49.496;8.154;2022-10-22T01:06:03;15.00;99.90
26595;DHT22;14238;49.496;8.154;2022-10-22T01:08:42;15.00;99.90
26595;DHT22;14238;49.496;8.154;2022-10-22T01:11:22;15.00;99.90
26595;DHT22;14238;49.496;8.154;2022-10-22T01:14:10;15.00;99.90
26595;DHT22;14238;49.496;8.154;2022-10-22T01:16:58;14.90;99.90
26595;DHT22;14238;49.496;8.154;2022-10-22T01:19:41;15.00;99.90
26595;DHT22;14238;49.496;8.154;2022-10-22T01:22:13;14.80;99.90
26595;DHT22;14238;49.496;8.154;2022-10-22T01:30:42;14.90;99.90
26595;DHT22;14238;49.496;8.154;2022-10-22T01:33:11;14.90;99.90
26595;DHT22;14238;49.496;8.154;2022-10-22T01:35:40;14.90;99.90
26595;DHT22;14238;49.496;8.154;2022-10-22T01:38:10;14.80;99.90
26595;DHT22;14238;49.496;8.154;2022-10-22T01:40:37;14.90;99.90
26595;DHT22;14238;49.496;8.154;2022-10-22T01:43:06;14.90;99.90
26595;DHT22;14238;49.496;8.154;2022-10-22T01:45:35;14.80;99.90
26595;DHT22;14238;49.496;8.154;2022-10-22T01:48:25;14.80;99.90
26595;DHT22;14238;49.496;8.154;2022-10-22T01:54:06;14.80;99.90
26595;DHT22;14238;49.496;8.154;2022-10-22T02:07:18;14.80;99.90
26595;DHT22;14238;49.496;8.154;2022-10-22T02:09:45;14.80;99.90
26595;DHT22;14238;49.496;8.154;2022-10-22T02:12:12;14.80;99.90
26595;DHT22;14238;49.496;8.154;2022-10-22T02:14:40;14.80;99.90
26595;DHT22;14238;49.496;8.154;2022-10-22T02:17:10;14.90;99.90
26595;DHT22;14238;49.496;8.154;2022-10-22T02:19:43;14.90;99.90
26595;DHT22;14238;49.496;8.154;2022-10-22T02:22:12;15.00;99.90
26595;DHT22;14238;49.496;8.154;2022-10-22T02:24:38;15.00;99.90
26595;DHT22;14238;49.496;8.154;2022-10-22T02:32:20;14.90;99.90
26595;DHT22;14238;49.496;8.154;2022-10-22T02:34:47;14.90;99.90
26595;DHT22;14238;49.496;8.154;2022-10-22T02:37:15;14.90;99.90
26595;DHT22;14238;49.496;8.154;2022-10-22T02:39:41;15.00;99.90
26595;DHT22;14238;49.496;8.154;2022-10-22T02:42:07;15.00;99.90
26595;DHT22;14238;49.496;8.154;2022-10-22T02:44:34;15.00;99.90
26595;DHT22;14238;49.496;8.154;2022-10-22T02:46:59;14.90;99.90
26595;DHT22;14238;49.496;8.154;2022-10-22T02:49:25;14.90;99.90
26595;DHT22;14238;49.496;8.154;2022-10-22T02:51:50;14.80;99.90
26595;DHT22;14238;49.496;8.154;2022-10-22T02:54:16;14.80;99.90
26595;DHT22;14238;49.496;8.154;2022-10-22T02:56:42;14.80;99.90
26595;DHT22;14238;49.496;8.154;2022-10-22T02:59:07;14.80;99.90
26595;DHT22;14238;49.496;8.154;2022-10-22T03:01:33;15.00;99.90
26595;DHT22;14238;49.496;8.154;2022-10-22T03:03:58;15.00;99.90
26595;DHT22;14238;49.496;8.154;2022-10-22T03:06:24;15.00;99.90
26595;DHT22;14238;49.496;8.154;2022-10-22T03:08:49;14.90;99.90
26595;DHT22;14238;49.496;8.154;2022-10-22T03:11:15;14.80;99.90
26595;DHT22;14238;49.496;8.154;2022-10-22T03:13:40;14.80;99.90
26595;DHT22;14238;49.496;8.154;2022-10-22T03:16:06;14.70;99.90
26595;DHT22;14238;49.496;8.154;2022-10-22T03:18:31;14.40;99.90
26595;DHT22;14238;49.496;8.154;2022-10-22T03:21:09;14.40;99.90
26595;DHT22;14238;49.496;8.154;2022-10-22T03:23:37;14.40;99.90
26595;DHT22;14238;49.496;8.154;2022-10-22T03:26:04;14.60;99.90
26595;DHT22;14238;49.496;8.154;2022-10-22T03:28:30;14.80;99.90
26595;DHT22;14238;49.496;8.154;2022-10-22T03:30:56;14.90;99.90
26595;DHT22;14238;49.496;8.154;2022-10-22T03:33:21;14.80;99.90
26595;DHT22;14238;49.496;8.154;2022-10-22T03:35:47;14.80;99.90
26595;DHT22;14238;49.496;8.154;2022-10-22T03:38:13;14.60;99.90
26595;DHT22;14238;49.496;8.154;2022-10-22T03:40:40;14.50;99.90
26595;DHT22;14238;49.496;8.154;2022-10-22T03:43:06;14.40;99.90
26595;DHT22;14238;49.496;8.154;2022-10-22T03:45:32;14.40;99.90
26595;DHT22;14238;49.496;8.154;2022-10-22T03:47:58;14.20;99.90
26595;DHT22;14238;49.496;8.154;2022-10-22T03:50:23;14.00;99.90
26595;DHT22;14238;49.496;8.154;2022-10-22T03:52:49;14.00;99.90
26595;DHT22;14238;49.496;8.154;2022-10-22T03:55:14;13.80;99.90
26595;DHT22;14238;49.496;8.154;2022-10-22T03:57:40;13.60;99.90
26595;DHT22;14238;49.496;8.154;2022-10-22T04:00:07;13.50;99.90
26595;DHT22;14238;49.496;8.154;2022-10-22T04:02:33;13.50;99.90
26595;DHT22;14238;49.496;8.154;2022-10-22T04:04:58;13.80;99.90
26595;DHT22;14238;49.496;8.154;2022-10-22T04:07:24;13.80;99.90
26595;DHT22;14238;49.496;8.154;2022-10-22T04:09:49;13.70;99.90
26595;DHT22;14238;49.496;8.154;2022-10-22T04:12:15;13.50;99.90
26595;DHT22;14238;49.496;8.154;2022-10-22T04:14:40;13.50;99.90
26595;DHT22;14238;49.496;8.154;2022-10-22T04:17:06;13.60;99.90
26595;DHT22;14238;49.496;8.154;2022-10-22T04:19:32;13.80;99.90
26595;DHT22;14238;49.496;8.154;2022-10-22T04:21:58;13.90;99.90
26595;DHT22;14238;49.496;8.154;2022-10-22T04:24:24;13.90;99.90
26595;DHT22;14238;49.496;8.154;2022-10-22T04:26:49;13.90;99.90
26595;DHT22;14238;49.496;8.154;2022-10-22T04:29:17;13.90;99.90
26595;DHT22;14238;49.496;8.154;2022-10-22T04:31:43;13.90;99.90
26595;DHT22;14238;49.496;8.154;2022-10-22T04:34:08;13.90;99.90
26595;DHT22;14238;49.496;8.154;2022-10-22T04:36:34;14.00;99.90
26595;DHT22;14238;49.496;8.154;2022-10-22T04:39:00;14.00;99.90
26595;DHT22;14238;49.496;8.154;2022-10-22T04:41:28;14.10;99.90
26595;DHT22;14238;49.496;8.154;2022-10-22T04:43:56;14.00;99.90
26595;DHT22;14238;49.496;8.154;2022-10-22T04:46:22;13.90;99.90
26595;DHT22;14238;49.496;8.154;2022-10-22T04:48:50;13.70;99.90
26595;DHT22;14238;49.496;8.154;2022-10-22T04:51:18;13.70;99.90
26595;DHT22;14238;49.496;8.154;2022-10-22T04:53:44;13.70;99.90
26595;DHT22;14238;49.496;8.154;2022-10-22T04:56:16;13.70;99.90
26595;DHT22;14238;49.496;8.154;2022-10-22T04:58:45;13.80;99.90
26595;DHT22;14238;49.496;8.154;2022-10-22T05:01:16;13.80;99.90
26595;DHT22;14238;49.496;8.154;2022-10-22T05:03:42;13.80;99.90
26595;DHT22;14238;49.496;8.154;2022-10-22T05:06:08;13.80;99.90
26595;DHT22;14238;49.496;8.154;2022-10-22T05:08:35;13.80;99.90
26595;DHT22;14238;49.496;8.154;2022-10-22T05:11:00;13.80;99.90
26595;DHT22;14238;49.496;8.154;2022-10-22T05:13:26;13.70;99.90
26595;DHT22;14238;49.496;8.154;2022-10-22T05:15:51;13.80;99.90
26595;DHT22;14238;49.496;8.154;2022-10-22T05:18:17;13.80;99.90
26595;DHT22;14238;49.496;8.154;2022-10-22T05:20:42;13.90;99.90
26595;DHT22;14238;49.496;8.154;2022-10-22T05:23:08;13.90;99.90
26595;DHT22;14238;49.496;8.154;2022-10-22T05:25:37;13.70;99.90
26595;DHT22;14238;49.496;8.154;2022-10-22T05:28:04;13.60;99.90
26595;DHT22;14238;49.496;8.154;2022-10-22T05:30:29;13.40;99.90
26595;DHT22;14238;49.496;8.154;2022-10-22T05:32:55;13.30;99.90
26595;DHT22;14238;49.496;8.154;2022-10-22T05:35:21;13.10;99.90
26595;DHT22;14238;49.496;8.154;2022-10-22T05:37:46;13.10;99.90
26595;DHT22;14238;49.496;8.154;2022-10-22T05:40:12;12.90;99.90
26595;DHT22;14238;49.496;8.154;2022-10-22T05:42:37;12.70;99.90
26595;DHT22;14238;49.496;8.154;2022-10-22T05:45:03;12.50;99.90
26595;DHT22;14238;49.496;8.154;2022-10-22T05:47:29;12.40;99.90
26595;DHT22;14238;49.496;8.154;2022-10-22T05:49:55;12.30;99.90
26595;DHT22;14238;49.496;8.154;2022-10-22T05:52:22;12.10;99.90
26595;DHT22;14238;49.496;8.154;2022-10-22T05:54:48;12.20;99.90
26595;DHT22;14238;49.496;8.154;2022-10-22T05:57:13;12.10;99.90
26595;DHT22;14238;49.496;8.154;2022-10-22T05:59:39;12.00;99.90
26595;DHT22;14238;49.496;8.154;2022-10-22T06:02:05;11.90;99.90
26595;DHT22;14238;49.496;8.154;2022-10-22T06:04:30;11.70;99.90
26595;DHT22;14238;49.496;8.154;2022-10-22T06:06:56;11.70;99.90
26595;DHT22;14238;49.496;8.154;2022-10-22T06:09:33;11.60;99.90
26595;DHT22;14238;49.496;8.154;2022-10-22T06:12:00;11.60;99.90
26595;DHT22;14238;49.496;8.154;2022-10-22T06:14:27;11.40;99.90
26595;DHT22;14238;49.496;8.154;2022-10-22T06:16:53;11.20;99.90
26595;DHT22;14238;49.496;8.154;2022-10-22T06:19:21;11.20;99.90
26595;DHT22;14238;49.496;8.154;2022-10-22T06:21:46;11.10;99.90
26595;DHT22;14238;49.496;8.154;2022-10-22T06:24:12;11.00;99.90
26595;DHT22;14238;49.496;8.154;2022-10-22T06:26:38;11.00;99.90
26595;DHT22;14238;49.496;8.154;2022-10-22T06:29:05;11.00;99.90
26595;DHT22;14238;49.496;8.154;2022-10-22T06:31:31;11.20;99.90
26595;DHT22;14238;49.496;8.154;2022-10-22T06:34:06;11.30;99.90
26595;DHT22;14238;49.496;8.154;2022-10-22T06:36:32;11.30;99.90
26595;DHT22;14238;49.496;8.154;2022-10-22T06:38:57;11.30;99.90
26595;DHT22;14238;49.496;8.154;2022-10-22T06:41:23;11.30;99.90
26595;DHT22;14238;49.496;8.154;2022-10-22T06:43:49;11.30;99.90
26595;DHT22;14238;49.496;8.154;2022-10-22T06:46:17;11.30;99.90
26595;DHT22;14238;49.496;8.154;2022-10-22T06:48:54;11.30;99.90
26595;DHT22;14238;49.496;8.154;2022-10-22T06:51:20;11.40;99.90
26595;DHT22;14238;49.496;8.154;2022-10-22T06:53:45;11.40;99.90
26595;DHT22;14238;49.496;8.154;2022-10-22T06:56:14;11.50;99.90
26595;DHT22;14238;49.496;8.154;2022-10-22T06:58:40;11.50;99.90
26595;DHT22;14238;49.496;8.154;2022-10-22T07:01:11;11.50;99.90
26595;DHT22;14238;49.496;8.154;2022-10-22T07:03:38;11.50;99.90
26595;DHT22;14238;49.496;8.154;2022-10-22T07:06:10;11.40;99.90
26595;DHT22;14238;49.496;8.154;2022-10-22T07:08:36;11.30;99.90
26595;DHT22;14238;49.496;8.154;2022-10-22T07:11:11;11.40;99.90
26595;DHT22;14238;49.496;8.154;2022-10-22T07:13:37;11.30;99.90
26595;DHT22;14238;49.496;8.154;2022-10-22T07:16:04;11.40;99.90
26595;DHT22;14238;49.496;8.154;2022-10-22T07:18:30;11.40;99.90
26595;DHT22;14238;49.496;8.154;2022-10-22T07:20:56;11.40;99.90
26595;DHT22;14238;49.496;8.154;2022-10-22T07:23:22;11.50;99.90
26595;DHT22;14238;49.496;8.154;2022-10-22T07:25:47;11.50;99.90
26595;DHT22;14238;49.496;8.154;2022-10-22T07:28:13;11.50;99.90
26595;DHT22;14238;49.496;8.154;2022-10-22T07:30:39;11.50;99.90
26595;DHT22;14238;49.496;8.154;2022-10-22T07:33:05;11.50;99.90
26595;DHT22;14238;49.496;8.154;2022-10-22T07:35:30;11.50;99.90
26595;DHT22;14238;49.496;8.154;2022-10-22T07:37:56;11.50;99.90
26595;DHT22;14238;49.496;8.154;2022-10-22T07:40:22;11.60;99.90
26595;DHT22;14238;49.496;8.154;2022-10-22T07:42:47;11.70;99.90
26595;DHT22;14238;49.496;8.154;2022-10-22T07:45:13;11.70;99.90
26595;DHT22;14238;49.496;8.154;2022-10-22T07:47:39;11.80;99.90
26595;DHT22;14238;49.496;8.154;2022-10-22T07:50:05;11.90;99.90
26595;DHT22;14238;49.496;8.154;2022-10-22T07:52:31;11.90;99.90
26595;DHT22;14238;49.496;8.154;2022-10-22T07:54:57;12.10;99.90
26595;DHT22;14238;49.496;8.154;2022-10-22T07:57:22;12.10;99.90
26595;DHT22;14238;49.496;8.154;2022-10-22T07:59:48;12.30;99.90
26595;DHT22;14238;49.496;8.154;2022-10-22T08:02:13;12.40;99.90
26595;DHT22;14238;49.496;8.154;2022-10-22T08:04:39;12.50;99.90
26595;DHT22;14238;49.496;8.154;2022-10-22T08:07:05;12.60;99.90
26595;DHT22;14238;49.496;8.154;2022-10-22T08:09:30;12.80;99.90
26595;DHT22;14238;49.496;8.154;2022-10-22T08:11:56;13.00;99.90
26595;DHT22;14238;49.496;8.154;2022-10-22T08:14:22;13.10;99.90
26595;DHT22;14238;49.496;8.154;2022-10-22T08:16:47;13.30;99.90
26595;DHT22;14238;49.496;8.154;2022-10-22T08:19:13;13.40;99.90
26595;DHT22;14238;49.496;8.154;2022-10-22T08:21:44;13.60;99.90
26595;DHT22;14238;49.496;8.154;2022-10-22T08:24:10;13.90;99.90
26595;DHT22;14238;49.496;8.154;2022-10-22T08:26:36;14.00;99.90
26595;DHT22;14238;49.496;8.154;2022-10-22T08:29:02;14.20;99.90
26595;DHT22;14238;49.496;8.154;2022-10-22T08:31:27;14.30;99.90
26595;DHT22;14238;49.496;8.154;2022-10-22T08:33:54;14.50;99.90
26595;DHT22;14238;49.496;8.154;2022-10-22T08:36:19;14.70;99.90
26595;DHT22;14238;49.496;8.154;2022-10-22T08:38:45;14.80;99.90
26595;DHT22;14238;49.496;8.154;2022-10-22T08:41:13;15.00;99.90
26595;DHT22;14238;49.496;8.154;2022-10-22T08:48:54;15.30;99.90
26595;DHT22;14238;49.496;8.154;2022-10-22T08:51:28;15.30;99.90
26595;DHT22;14238;49.496;8.154;2022-10-22T08:54:05;15.50;99.90
26595;DHT22;14238;49.496;8.154;2022-10-22T08:56:35;15.50;99.90
26595;DHT22;14238;49.496;8.154;2022-10-22T08:59:14;15.50;99.90
26595;DHT22;14238;49.496;8.154;2022-10-22T09:01:45;15.50;99.90
26595;DHT22;14238;49.496;8.154;2022-10-22T09:04:33;15.60;99.90
26595;DHT22;14238;49.496;8.154;2022-10-22T09:07:00;15.70;99.90
26595;DHT22;14238;49.496;8.154;2022-10-22T09:09:30;15.80;99.90
26595;DHT22;14238;49.496;8.154;2022-10-22T09:11:58;15.90;99.90
26595;DHT22;14238;49.496;8.154;2022-10-22T09:14:25;16.00;99.90
26595;DHT22;14238;49.496;8.154;2022-10-22T09:17:20;16.00;99.90
26595;DHT22;14238;49.496;8.154;2022-10-22T09:20:10;16.20;99.90
26595;DHT22;14238;49.496;8.154;2022-10-22T09:25:30;18.50;99.90
26595;DHT22;14238;49.496;8.154;2022-10-22T09:27:56;19.80;99.90
26595;DHT22;14238;49.496;8.154;2022-10-22T09:30:27;20.90;99.90
26595;DHT22;14238;49.496;8.154;2022-10-22T09:33:00;21.80;99.90
26595;DHT22;14238;49.496;8.154;2022-10-22T09:35:27;22.30;99.90
26595;DHT22;14238;49.496;8.154;2022-10-22T09:37:55;23.00;99.90
26595;DHT22;14238;49.496;8.154;2022-10-22T09:40:22;22.90;99.90
26595;DHT22;14238;49.496;8.154;2022-10-22T09:42:48;23.10;99.90
26595;DHT22;14238;49.496;8.154;2022-10-22T09:45:33;23.60;99.90
26595;DHT22;14238;49.496;8.154;2022-10-22T09:48:27;23.60;99.90
26595;DHT22;14238;49.496;8.154;2022-10-22T09:51:02;23.80;99.90
26595;DHT22;14238;49.496;8.154;2022-10-22T09:53:30;23.30;99.90
26595;DHT22;14238;49.496;8.154;2022-10-22T09:56:00;22.80;99.90
26595;DHT22;14238;49.496;8.154;2022-10-22T09:58:43;22.80;99.90
26595;DHT22;14238;49.496;8.154;2022-10-22T10:01:19;22.50;99.90
26595;DHT22;14238;49.496;8.154;2022-10-22T10:03:47;23.00;99.90
26595;DHT22;14238;49.496;8.154;2022-10-22T10:06:17;23.40;99.90
26595;DHT22;14238;49.496;8.154;2022-10-22T10:08:43;23.30;99.90
26595;DHT22;14238;49.496;8.154;2022-10-22T10:11:24;23.20;99.90
26595;DHT22;14238;49.496;8.154;2022-10-22T10:14:03;23.20;99.90
26595;DHT22;14238;49.496;8.154;2022-10-22T10:17:04;22.90;99.90
26595;DHT22;14238;49.496;8.154;2022-10-22T10:19:40;22.40;99.90
26595;DHT22;14238;49.496;8.154;2022-10-22T10:22:37;22.60;99.90
26595;DHT22;14238;49.496;8.154;2022-10-22T10:25:33;23.10;99.90
26595;DHT22;14238;49.496;8.154;2022-10-22T10:28:24;23.20;99.90
26595;DHT22;14238;49.496;8.154;2022-10-22T10:36:51;23.20;99.90
26595;DHT22;14238;49.496;8.154;2022-10-22T10:39:28;23.40;99.90
26595;DHT22;14238;49.496;8.154;2022-10-22T10:42:48;23.60;99.90
26595;DHT22;14238;49.496;8.154;2022-10-22T10:48:08;24.70;99.90
26595;DHT22;14238;49.496;8.154;2022-10-22T10:50:50;24.60;99.90
26595;DHT22;14238;49.496;8.154;2022-10-22T10:56:36;24.40;99.90
26595;DHT22;14238;49.496;8.154;2022-10-22T10:59:15;24.30;99.90
26595;DHT22;14238;49.496;8.154;2022-10-22T11:01:55;23.90;99.90
26595;DHT22;14238;49.496;8.154;2022-10-22T11:04:57;25.20;99.90
26595;DHT22;14238;49.496;8.154;2022-10-22T11:07:35;25.20;99.90
26595;DHT22;14238;49.496;8.154;2022-10-22T11:10:25;25.30;99.90
26595;DHT22;14238;49.496;8.154;2022-10-22T11:12:56;25.90;98.40
26595;DHT22;14238;49.496;8.154;2022-10-22T11:15:33;24.80;99.80
26595;DHT22;14238;49.496;8.154;2022-10-22T11:18:21;23.80;99.90
26595;DHT22;14238;49.496;8.154;2022-10-22T11:21:01;22.80;99.90
26595;DHT22;14238;49.496;8.154;2022-10-22T11:23:35;22.00;99.90
26595;DHT22;14238;49.496;8.154;2022-10-22T11:26:04;21.40;99.90
26595;DHT22;14238;49.496;8.154;2022-10-22T11:28:34;21.30;99.90
26595;DHT22;14238;49.496;8.154;2022-10-22T11:31:04;21.00;99.90
26595;DHT22;14238;49.496;8.154;2022-10-22T11:36:41;20.40;99.90
26595;DHT22;14238;49.496;8.154;2022-10-22T11:39:29;20.40;99.90
26595;DHT22;14238;49.496;8.154;2022-10-22T11:41:58;20.50;99.90
26595;DHT22;14238;49.496;8.154;2022-10-22T11:44:23;20.50;99.90
26595;DHT22;14238;49.496;8.154;2022-10-22T11:47:12;20.70;99.90
26595;DHT22;14238;49.496;8.154;2022-10-22T11:49:44;20.90;99.90
26595;DHT22;14238;49.496;8.154;2022-10-22T11:52:37;21.30;99.90
26595;DHT22;14238;49.496;8.154;2022-10-22T12:08:30;23.10;99.90
26595;DHT22;14238;49.496;8.154;2022-10-22T12:14:13;23.80;99.90
26595;DHT22;14238;49.496;8.154;2022-10-22T12:16:51;25.90;99.90
26595;DHT22;14238;49.496;8.154;2022-10-22T12:21:51;28.40;96.30
26595;DHT22;14238;49.496;8.154;2022-10-22T12:24:19;29.00;94.20
26595;DHT22;14238;49.496;8.154;2022-10-22T12:26:45;29.10;94.30
26595;DHT22;14238;49.496;8.154;2022-10-22T12:29:15;28.70;93.30
26595;DHT22;14238;49.496;8.154;2022-10-22T12:31:43;29.10;94.20
26595;DHT22;14238;49.496;8.154;2022-10-22T12:34:17;29.00;92.20
26595;DHT22;14238;49.496;8.154;2022-10-22T12:36:45;28.20;92.50
26595;DHT22;14238;49.496;8.154;2022-10-22T12:39:14;27.70;92.20
26595;DHT22;14238;49.496;8.154;2022-10-22T12:41:41;26.50;94.20
26595;DHT22;14238;49.496;8.154;2022-10-22T12:44:11;26.30;93.80
26595;DHT22;14238;49.496;8.154;2022-10-22T12:46:37;27.10;94.10
26595;DHT22;14238;49.496;8.154;2022-10-22T12:49:07;27.10;93.90
26595;DHT22;14238;49.496;8.154;2022-10-22T12:51:33;27.00;93.20
26595;DHT22;14238;49.496;8.154;2022-10-22T12:54:28;27.50;94.10
26595;DHT22;14238;49.496;8.154;2022-10-22T12:56:56;28.00;93.90
26595;DHT22;14238;49.496;8.154;2022-10-22T12:59:31;28.10;92.80
26595;DHT22;14238;49.496;8.154;2022-10-22T13:01:57;27.70;92.60
26595;DHT22;14238;49.496;8.154;2022-10-22T13:04:33;26.60;93.40
26595;DHT22;14238;49.496;8.154;2022-10-22T13:07:17;26.10;94.70
26595;DHT22;14238;49.496;8.154;2022-10-22T13:09:57;26.30;95.10
26595;DHT22;14238;49.496;8.154;2022-10-22T13:14:50;24.10;96.70
26595;DHT22;14238;49.496;8.154;2022-10-22T13:17:35;23.20;97.30
26595;DHT22;14238;49.496;8.154;2022-10-22T13:20:04;23.20;99.20
26595;DHT22;14238;49.496;8.154;2022-10-22T13:22:39;22.60;98.80
26595;DHT22;14238;49.496;8.154;2022-10-22T13:27:51;22.70;98.10
26595;DHT22;14238;49.496;8.154;2022-10-22T13:30:38;22.30;99.10
26595;DHT22;14238;49.496;8.154;2022-10-22T13:33:16;22.20;99.90
26595;DHT22;14238;49.496;8.154;2022-10-22T13:35:47;22.30;98.90
26595;DHT22;14238;49.496;8.154;2022-10-22T13:38:18;22.40;99.80
26595;DHT22;14238;49.496;8.154;2022-10-22T13:40:44;22.40;99.10
26595;DHT22;14238;49.496;8.154;2022-10-22T13:43:09;22.10;99.90
26595;DHT22;14238;49.496;8.154;2022-10-22T13:45:35;22.20;99.00
26595;DHT22;14238;49.496;8.154;2022-10-22T13:48:00;21.90;99.90
26595;DHT22;14238;49.496;8.154;2022-10-22T13:50:26;21.70;99.90
26595;DHT22;14238;49.496;8.154;2022-10-22T13:52:54;21.60;99.90
26595;DHT22;14238;49.496;8.154;2022-10-22T13:55:24;21.50;99.90
26595;DHT22;14238;49.496;8.154;2022-10-22T13:58:05;21.60;99.90
26595;DHT22;14238;49.496;8.154;2022-10-22T14:00:31;21.50;99.90
26595;DHT22;14238;49.496;8.154;2022-10-22T14:02:58;21.30;99.90
26595;DHT22;14238;49.496;8.154;2022-10-22T14:05:24;21.20;99.90
26595;DHT22;14238;49.496;8.154;2022-10-22T14:07:50;21.30;99.90
26595;DHT22;14238;49.496;8.154;2022-10-22T14:10:19;21.40;99.90
26595;DHT22;14238;49.496;8.154;2022-10-22T14:12:45;21.40;99.90
26595;DHT22;14238;49.496;8.154;2022-10-22T14:15:13;21.60;99.90
26595;DHT22;14238;49.496;8.154;2022-10-22T14:17:40;21.70;99.90
26595;DHT22;14238;49.496;8.154;2022-10-22T14:20:16;21.70;99.90
26595;DHT22;14238;49.496;8.154;2022-10-22T14:22:44;21.60;99.90
26595;DHT22;14238;49.496;8.154;2022-10-22T14:25:16;21.50;99.90
26595;DHT22;14238;49.496;8.154;2022-10-22T14:27:42;21.30;99.90
26595;DHT22;14238;49.496;8.154;2022-10-22T14:30:08;21.00;99.90
26595;DHT22;14238;49.496;8.154;2022-10-22T14:32:34;20.90;99.90
26595;DHT22;14238;49.496;8.154;2022-10-22T14:34:59;20.70;99.90
26595;DHT22;14238;49.496;8.154;2022-10-22T14:37:25;20.70;99.90
26595;DHT22;14238;49.496;8.154;2022-10-22T14:39:51;20.60;99.90
26595;DHT22;14238;49.496;8.154;2022-10-22T14:42:24;20.50;99.90
26595;DHT22;14238;49.496;8.154;2022-10-22T14:44:50;20.20;99.90
26595;DHT22;14238;49.496;8.154;2022-10-22T14:47:16;20.00;99.90
26595;DHT22;14238;49.496;8.154;2022-10-22T14:49:42;19.90;99.90
26595;DHT22;14238;49.496;8.154;2022-10-22T14:52:07;19.70;99.90
26595;DHT22;14238;49.496;8.154;2022-10-22T14:54:33;19.60;99.90
26595;DHT22;14238;49.496;8.154;2022-10-22T14:57:00;19.30;99.90
26595;DHT22;14238;49.496;8.154;2022-10-22T14:59:26;19.10;99.90
26595;DHT22;14238;49.496;8.154;2022-10-22T15:01:52;19.00;99.90
26595;DHT22;14238;49.496;8.154;2022-10-22T15:04:17;19.00;99.90
26595;DHT22;14238;49.496;8.154;2022-10-22T15:06:43;18.80;99.90
26595;DHT22;14238;49.496;8.154;2022-10-22T15:09:09;18.80;99.90
26595;DHT22;14238;49.496;8.154;2022-10-22T15:11:34;18.80;99.90
26595;DHT22;14238;49.496;8.154;2022-10-22T15:14:00;18.80;99.90
26595;DHT22;14238;49.496;8.154;2022-10-22T15:16:25;18.70;99.90
26595;DHT22;14238;49.496;8.154;2022-10-22T15:18:51;18.70;99.90
26595;DHT22;14238;49.496;8.154;2022-10-22T15:21:19;18.50;99.90
26595;DHT22;14238;49.496;8.154;2022-10-22T15:23:46;18.40;99.90
26595;DHT22;14238;49.496;8.154;2022-10-22T15:26:12;18.30;99.90
26595;DHT22;14238;49.496;8.154;2022-10-22T15:28:39;18.20;99.90
26595;DHT22;14238;49.496;8.154;2022-10-22T15:31:05;18.10;99.90
26595;DHT22;14238;49.496;8.154;2022-10-22T15:33:31;18.00;99.90
26595;DHT22;14238;49.496;8.154;2022-10-22T15:35:57;18.00;99.90
26595;DHT22;14238;49.496;8.154;2022-10-22T15:38:27;17.90;99.90
26595;DHT22;14238;49.496;8.154;2022-10-22T15:41:03;17.80;99.90
26595;DHT22;14238;49.496;8.154;2022-10-22T15:43:29;17.60;99.90
26595;DHT22;14238;49.496;8.154;2022-10-22T15:48:36;17.30;99.90
26595;DHT22;14238;49.496;8.154;2022-10-22T15:51:07;17.10;99.90
26595;DHT22;14238;49.496;8.154;2022-10-22T15:53:33;17.00;99.90
26595;DHT22;14238;49.496;8.154;2022-10-22T15:55:59;16.90;99.90
26595;DHT22;14238;49.496;8.154;2022-10-22T15:58:24;16.70;99.90
26595;DHT22;14238;49.496;8.154;2022-10-22T16:00:50;16.50;99.90
26595;DHT22;14238;49.496;8.154;2022-10-22T16:03:15;16.30;99.90
26595;DHT22;14238;49.496;8.154;2022-10-22T16:05:51;16.20;99.90
26595;DHT22;14238;49.496;8.154;2022-10-22T16:08:21;16.10;99.90
26595;DHT22;14238;49.496;8.154;2022-10-22T16:10:47;16.20;99.90
26595;DHT22;14238;49.496;8.154;2022-10-22T16:13:13;16.00;99.90
26595;DHT22;14238;49.496;8.154;2022-10-22T16:15:39;15.90;99.90
26595;DHT22;14238;49.496;8.154;2022-10-22T16:18:04;15.70;99.90
26595;DHT22;14238;49.496;8.154;2022-10-22T16:20:30;15.70;99.90
26595;DHT22;14238;49.496;8.154;2022-10-22T16:22:56;15.50;99.90
26595;DHT22;14238;49.496;8.154;2022-10-22T16:25:21;15.50;99.90
26595;DHT22;14238;49.496;8.154;2022-10-22T16:27:50;15.20;99.90
26595;DHT22;14238;49.496;8.154;2022-10-22T16:30:16;15.20;99.90
26595;DHT22;14238;49.496;8.154;2022-10-22T16:32:42;15.20;99.90
26595;DHT22;14238;49.496;8.154;2022-10-22T16:35:08;15.20;99.90
26595;DHT22;14238;49.496;8.154;2022-10-22T16:37:34;15.10;99.90
26595;DHT22;14238;49.496;8.154;2022-10-22T16:39:59;15.00;99.90
26595;DHT22;14238;49.496;8.154;2022-10-22T16:42:25;14.90;99.90
26595;DHT22;14238;49.496;8.154;2022-10-22T16:44:50;14.80;99.90
26595;DHT22;14238;49.496;8.154;2022-10-22T16:47:16;14.80;99.90
26595;DHT22;14238;49.496;8.154;2022-10-22T16:49:41;14.80;99.90
26595;DHT22;14238;49.496;8.154;2022-10-22T16:52:07;14.70;99.90
26595;DHT22;14238;49.496;8.154;2022-10-22T16:54:33;14.80;99.90
26595;DHT22;14238;49.496;8.154;2022-10-22T16:56:58;14.70;99.90
26595;DHT22;14238;49.496;8.154;2022-10-22T16:59:24;14.80;99.90
26595;DHT22;14238;49.496;8.154;2022-10-22T17:01:49;14.70;99.90